createdAt,value
2017-06-29T00:00:33.319Z,99.99
2017-06-29T00:01:13.883Z,99.99
2017-06-29T00:01:54.397Z,99.99
2017-06-29T00:02:34.962Z,99.99
2017-06-29T00:03:15.456Z,99.99
2017-06-29T00:03:55.962Z,99.99
2017-06-29T00:04:36.454Z,99.99
2017-06-29T00:05:17.733Z,99.99
2017-06-29T00:05:58.248Z,99.99
2017-06-29T00:06:38.783Z,99.99
2017-06-29T00:07:19.383Z,99.99
2017-06-29T00:08:00.005Z,99.99
2017-06-29T00:08:40.515Z,99.99
2017-06-29T00:09:21.021Z,99.99
2017-06-29T00:10:01.583Z,99.99
2017-06-29T00:10:42.067Z,99.99
2017-06-29T00:11:22.667Z,99.99
2017-06-29T00:12:03.224Z,99.99
2017-06-29T00:12:43.831Z,99.99
2017-06-29T00:13:24.341Z,99.99
2017-06-29T00:14:04.858Z,99.99
2017-06-29T00:14:45.384Z,99.99
2017-06-29T00:15:25.917Z,99.99
2017-06-29T00:16:06.444Z,99.99
2017-06-29T00:16:46.960Z,99.99
2017-06-29T00:17:27.474Z,99.99
2017-06-29T00:18:08.027Z,99.99
2017-06-29T00:18:48.562Z,99.99
2017-06-29T00:19:29.095Z,99.99
2017-06-29T00:20:09.621Z,99.99
2017-06-29T00:20:50.175Z,99.99
2017-06-29T00:21:30.768Z,99.99
2017-06-29T00:22:11.256Z,99.99
2017-06-29T00:22:51.794Z,99.99
2017-06-29T00:23:32.344Z,99.99
2017-06-29T00:24:12.878Z,99.99
2017-06-29T00:24:54.227Z,99.99
2017-06-29T00:25:34.765Z,99.99
2017-06-29T00:26:15.344Z,99.99
2017-06-29T00:26:55.865Z,99.99
2017-06-29T00:27:36.427Z,99.99
2017-06-29T00:28:17.029Z,99.99
2017-06-29T00:28:57.617Z,99.99
2017-06-29T00:29:38.251Z,99.99
2017-06-29T00:30:18.842Z,99.99
2017-06-29T00:30:59.412Z,99.99
2017-06-29T00:31:40.000Z,99.99
2017-06-29T00:32:21.542Z,99.99
2017-06-29T00:33:02.258Z,99.99
2017-06-29T00:33:42.805Z,99.99
2017-06-29T00:34:23.328Z,99.99
2017-06-29T00:35:03.961Z,99.99
2017-06-29T00:35:44.632Z,99.99
2017-06-29T00:36:25.241Z,99.99
2017-06-29T00:37:05.819Z,99.99
2017-06-29T00:37:46.396Z,99.99
2017-06-29T00:38:27.542Z,99.99
2017-06-29T00:39:08.147Z,99.99
2017-06-29T00:39:49.256Z,99.99
2017-06-29T00:40:31.388Z,99.99
2017-06-29T00:41:11.939Z,99.99
2017-06-29T00:41:52.458Z,99.99
2017-06-29T00:42:33.015Z,99.99
2017-06-29T00:43:13.572Z,99.99
2017-06-29T00:43:54.889Z,99.99
2017-06-29T00:44:36.437Z,99.99
2017-06-29T00:45:16.975Z,99.99
2017-06-29T00:45:58.277Z,99.99
2017-06-29T00:46:38.982Z,99.99
2017-06-29T00:47:20.269Z,99.99
2017-06-29T00:48:02.359Z,99.99
2017-06-29T00:48:42.955Z,99.99
2017-06-29T00:49:23.521Z,99.99
2017-06-29T00:50:05.564Z,99.99
2017-06-29T00:50:46.167Z,99.99
2017-06-29T00:51:28.667Z,99.99
2017-06-29T00:52:09.301Z,99.99
2017-06-29T00:52:50.678Z,99.99
2017-06-29T00:53:32.175Z,99.99
2017-06-29T00:54:13.718Z,99.99
2017-06-29T00:54:54.306Z,99.99
2017-06-29T00:55:35.463Z,99.99
2017-06-29T00:56:18.124Z,99.99
2017-06-29T00:56:58.623Z,99.99
2017-06-29T00:57:41.283Z,99.99
2017-06-29T00:58:21.860Z,99.99
2017-06-29T00:59:02.401Z,99.99
2017-06-29T00:59:43.813Z,99.99
2017-06-29T01:00:24.408Z,99.99
2017-06-29T01:01:05.131Z,99.99
2017-06-29T01:01:45.711Z,99.99
2017-06-29T01:02:27.859Z,99.99
2017-06-29T01:03:08.917Z,99.99
2017-06-29T01:03:50.403Z,99.99
2017-06-29T01:04:31.051Z,99.99
2017-06-29T01:05:13.391Z,99.99
2017-06-29T01:05:53.883Z,99.99
2017-06-29T01:06:34.435Z,99.99
2017-06-29T01:07:15.028Z,99.99
2017-06-29T01:07:55.553Z,99.99
2017-06-29T01:08:36.128Z,99.99
2017-06-29T01:09:16.833Z,99.99
2017-06-29T01:09:57.263Z,99.99
2017-06-29T01:10:37.921Z,99.99
2017-06-29T01:11:18.410Z,99.99
2017-06-29T01:11:59.569Z,99.99
2017-06-29T01:12:41.100Z,99.99
2017-06-29T01:13:21.739Z,99.99
2017-06-29T01:14:03.236Z,99.99
2017-06-29T01:14:45.049Z,99.99
2017-06-29T01:15:26.204Z,99.99
2017-06-29T01:16:09.682Z,99.99
2017-06-29T01:16:51.165Z,99.99
2017-06-29T01:17:31.714Z,99.99
2017-06-29T01:18:13.193Z,99.99
2017-06-29T01:18:55.563Z,99.99
2017-06-29T01:19:36.375Z,99.99
2017-06-29T01:20:17.157Z,99.99
2017-06-29T01:20:58.577Z,99.99
2017-06-29T01:21:44.591Z,99.99
2017-06-29T01:22:27.154Z,99.99
2017-06-29T01:23:08.411Z,99.99
2017-06-29T01:23:50.872Z,99.99
2017-06-29T01:24:34.629Z,99.99
2017-06-29T01:25:17.553Z,99.99
2017-06-29T01:25:59.082Z,99.99
2017-06-29T01:26:43.084Z,99.99
2017-06-29T01:27:23.890Z,99.99
2017-06-29T01:28:04.498Z,99.99
2017-06-29T01:28:48.740Z,99.99
2017-06-29T01:29:32.710Z,99.99
2017-06-29T01:30:17.618Z,99.99
2017-06-29T01:31:08.708Z,99.99
2017-06-29T01:31:56.753Z,99.99
2017-06-29T01:32:40.774Z,99.99
2017-06-29T01:33:21.388Z,99.99
2017-06-29T01:34:07.565Z,99.99
2017-06-29T01:34:48.709Z,99.99
2017-06-29T01:35:31.173Z,99.99
2017-06-29T01:36:13.060Z,99.99
2017-06-29T01:36:53.606Z,99.99
2017-06-29T01:37:34.124Z,99.99
2017-06-29T01:38:14.736Z,99.99
2017-06-29T01:38:55.275Z,99.99
2017-06-29T01:39:35.812Z,99.99
2017-06-29T01:40:16.389Z,99.99
2017-06-29T01:40:56.972Z,99.99
2017-06-29T01:41:38.403Z,99.99
2017-06-29T01:42:18.917Z,99.99
2017-06-29T01:42:59.470Z,99.99
2017-06-29T01:43:40.101Z,99.99
2017-06-29T01:44:20.653Z,99.99
2017-06-29T01:45:01.177Z,99.99
2017-06-29T01:45:41.714Z,99.99
2017-06-29T01:46:22.249Z,99.99
2017-06-29T01:47:02.885Z,99.99
2017-06-29T01:47:43.499Z,99.99
2017-06-29T01:48:24.578Z,99.99
2017-06-29T01:49:05.134Z,99.99
2017-06-29T01:49:45.702Z,99.99
2017-06-29T01:50:26.255Z,99.99
2017-06-29T01:51:06.838Z,99.99
2017-06-29T01:51:47.361Z,99.99
2017-06-29T01:52:27.902Z,99.99
2017-06-29T01:53:08.440Z,99.99
2017-06-29T01:53:49.070Z,99.99
2017-06-29T01:54:29.657Z,99.99
2017-06-29T01:55:10.162Z,99.99
2017-06-29T01:55:51.554Z,99.99
2017-06-29T01:56:32.064Z,99.99
2017-06-29T01:57:12.576Z,99.99
2017-06-29T01:57:53.218Z,99.99
2017-06-29T01:58:33.730Z,99.99
2017-06-29T01:59:14.347Z,99.99
2017-06-29T01:59:54.836Z,99.99
2017-06-29T02:00:36.055Z,99.99
2017-06-29T02:01:16.596Z,99.99
2017-06-29T02:01:57.167Z,99.99
2017-06-29T02:02:37.722Z,99.99
2017-06-29T02:03:18.323Z,99.99
2017-06-29T02:03:58.777Z,99.99
2017-06-29T02:04:39.328Z,99.99
2017-06-29T02:05:19.860Z,99.99
2017-06-29T02:06:00.354Z,99.99
2017-06-29T02:06:40.861Z,99.99
2017-06-29T02:07:21.477Z,99.99
2017-06-29T02:08:02.054Z,99.99
2017-06-29T02:08:42.614Z,99.99
2017-06-29T02:09:23.108Z,99.99
2017-06-29T02:10:03.710Z,99.99
2017-06-29T02:10:44.209Z,99.99
2017-06-29T02:11:24.727Z,99.99
2017-06-29T02:12:05.314Z,99.99
2017-06-29T02:12:45.844Z,99.99
2017-06-29T02:13:26.458Z,99.99
2017-06-29T02:14:07.709Z,99.99
2017-06-29T02:14:48.242Z,99.99
2017-06-29T02:15:28.755Z,99.99
2017-06-29T02:16:09.374Z,99.99
2017-06-29T02:16:49.884Z,99.99
2017-06-29T02:17:30.493Z,99.99
2017-06-29T02:18:11.687Z,99.99
2017-06-29T02:18:52.269Z,99.99
2017-06-29T02:19:32.782Z,99.99
2017-06-29T02:20:13.366Z,99.99
2017-06-29T02:20:53.817Z,99.99
2017-06-29T02:21:34.409Z,99.99
2017-06-29T02:22:14.881Z,99.99
2017-06-29T02:22:55.473Z,99.99
2017-06-29T02:23:35.989Z,99.99
2017-06-29T02:24:16.532Z,99.99
2017-06-29T02:24:57.059Z,99.99
2017-06-29T02:25:37.574Z,99.99
2017-06-29T02:26:18.104Z,99.99
2017-06-29T02:26:58.643Z,99.99
2017-06-29T02:27:39.118Z,99.99
2017-06-29T02:28:19.624Z,99.99
2017-06-29T02:29:00.214Z,99.99
2017-06-29T02:29:40.675Z,99.99
2017-06-29T02:30:21.196Z,99.99
2017-06-29T02:31:01.749Z,99.99
2017-06-29T02:31:42.305Z,99.99
2017-06-29T02:32:22.866Z,99.99
2017-06-29T02:33:03.396Z,99.99
2017-06-29T02:33:43.922Z,99.99
2017-06-29T02:34:24.433Z,99.99
2017-06-29T02:35:04.966Z,99.99
2017-06-29T02:35:45.550Z,99.99
2017-06-29T02:36:25.962Z,99.99
2017-06-29T02:37:06.651Z,99.99
2017-06-29T02:37:47.171Z,99.99
2017-06-29T02:38:27.710Z,99.99
2017-06-29T02:39:08.235Z,99.99
2017-06-29T02:39:48.825Z,99.99
2017-06-29T02:40:29.333Z,99.99
2017-06-29T02:41:09.842Z,99.99
2017-06-29T02:41:50.380Z,99.99
2017-06-29T02:42:30.878Z,99.99
2017-06-29T02:43:11.471Z,99.99
2017-06-29T02:43:52.041Z,99.99
2017-06-29T02:44:32.542Z,99.99
2017-06-29T02:45:13.088Z,99.99
2017-06-29T02:45:53.559Z,99.99
2017-06-29T02:46:34.071Z,99.99
2017-06-29T02:47:14.624Z,99.99
2017-06-29T02:47:55.098Z,99.99
2017-06-29T02:48:35.624Z,99.99
2017-06-29T02:49:16.157Z,99.99
2017-06-29T02:49:56.744Z,99.99
2017-06-29T02:50:37.234Z,99.99
2017-06-29T02:51:17.738Z,99.99
2017-06-29T02:51:58.418Z,99.99
2017-06-29T02:52:39.039Z,99.99
2017-06-29T02:53:19.516Z,99.99
2017-06-29T02:54:00.119Z,99.99
2017-06-29T02:54:40.753Z,99.99
2017-06-29T02:55:21.273Z,99.99
2017-06-29T02:56:01.836Z,99.99
2017-06-29T02:56:42.361Z,99.99
2017-06-29T02:57:22.882Z,99.99
2017-06-29T02:58:03.368Z,99.99
2017-06-29T02:58:43.850Z,99.99
2017-06-29T02:59:24.345Z,99.99
2017-06-29T03:00:04.965Z,99.99
2017-06-29T03:00:45.526Z,99.99
2017-06-29T03:01:25.976Z,99.99
2017-06-29T03:02:06.492Z,99.99
2017-06-29T03:02:47.046Z,99.99
2017-06-29T03:03:27.579Z,99.99
2017-06-29T03:04:08.103Z,99.99
2017-06-29T03:04:48.590Z,99.99
2017-06-29T03:05:29.128Z,99.99
2017-06-29T03:06:09.633Z,99.99
2017-06-29T03:06:50.237Z,99.99
2017-06-29T03:07:30.711Z,99.99
2017-06-29T03:08:11.222Z,99.99
2017-06-29T03:08:51.806Z,99.99
2017-06-29T03:09:32.385Z,99.99
2017-06-29T03:10:12.933Z,99.99
2017-06-29T03:10:53.468Z,99.99
2017-06-29T03:11:34.031Z,99.99
2017-06-29T03:12:14.551Z,99.99
2017-06-29T03:12:55.120Z,99.99
2017-06-29T03:13:35.672Z,99.99
2017-06-29T03:14:16.221Z,99.99
2017-06-29T03:14:56.768Z,99.99
2017-06-29T03:15:37.321Z,99.99
2017-06-29T03:16:17.890Z,99.99
2017-06-29T03:16:58.449Z,99.99
2017-06-29T03:17:39.124Z,99.99
2017-06-29T03:18:19.671Z,99.99
2017-06-29T03:19:00.222Z,99.99
2017-06-29T03:19:40.736Z,99.99
2017-06-29T03:20:21.314Z,99.99
2017-06-29T03:21:01.983Z,99.99
2017-06-29T03:21:42.430Z,99.99
2017-06-29T03:22:22.967Z,99.99
2017-06-29T03:23:03.524Z,99.99
2017-06-29T03:23:44.098Z,99.99
2017-06-29T03:24:24.577Z,99.99
2017-06-29T03:25:05.096Z,99.99
2017-06-29T03:25:45.636Z,99.99
2017-06-29T03:26:26.313Z,99.99
2017-06-29T03:27:06.841Z,99.99
2017-06-29T03:27:47.429Z,99.99
2017-06-29T03:28:28.031Z,99.99
2017-06-29T03:29:08.485Z,99.99
2017-06-29T03:29:49.031Z,99.99
2017-06-29T03:30:29.603Z,99.99
2017-06-29T03:31:10.168Z,99.99
2017-06-29T03:31:50.714Z,99.99
2017-06-29T03:32:31.240Z,99.99
2017-06-29T03:33:11.852Z,99.99
2017-06-29T03:33:52.451Z,99.99
2017-06-29T03:34:33.009Z,99.99
2017-06-29T03:35:13.539Z,99.99
2017-06-29T03:35:54.099Z,99.99
2017-06-29T03:36:34.682Z,99.99
2017-06-29T03:37:15.200Z,99.99
2017-06-29T03:37:55.785Z,99.99
2017-06-29T03:38:36.293Z,99.99
2017-06-29T03:39:16.867Z,99.99
2017-06-29T03:39:57.400Z,99.99
2017-06-29T03:40:37.897Z,99.99
2017-06-29T03:41:18.447Z,99.99
2017-06-29T03:41:58.993Z,99.99
2017-06-29T03:42:39.569Z,99.99
2017-06-29T03:43:20.113Z,99.99
2017-06-29T03:44:00.622Z,99.99
2017-06-29T03:44:41.157Z,99.99
2017-06-29T03:45:21.702Z,99.99
2017-06-29T03:46:02.310Z,99.99
2017-06-29T03:46:42.791Z,99.99
2017-06-29T03:47:23.397Z,99.99
2017-06-29T03:48:03.904Z,99.99
2017-06-29T03:48:44.379Z,99.99
2017-06-29T03:49:24.951Z,99.99
2017-06-29T03:50:05.533Z,99.99
2017-06-29T03:50:46.071Z,99.99
2017-06-29T03:51:26.621Z,99.99
2017-06-29T03:52:07.215Z,99.99
2017-06-29T03:52:47.720Z,99.99
2017-06-29T03:53:28.222Z,99.99
2017-06-29T03:54:08.787Z,99.99
2017-06-29T03:54:49.322Z,99.99
2017-06-29T03:55:29.874Z,99.99
2017-06-29T03:56:10.440Z,99.99
2017-06-29T03:56:50.981Z,99.99
2017-06-29T03:57:31.479Z,99.99
2017-06-29T03:58:12.030Z,99.99
2017-06-29T03:58:52.604Z,99.99
2017-06-29T03:59:33.116Z,99.99
2017-06-29T04:00:13.686Z,99.99
2017-06-29T04:00:54.432Z,99.99
2017-06-29T04:01:35.023Z,99.99
2017-06-29T04:02:15.541Z,99.99
2017-06-29T04:02:56.085Z,99.99
2017-06-29T04:03:36.623Z,99.99
2017-06-29T04:04:17.157Z,99.99
2017-06-29T04:04:57.714Z,99.99
2017-06-29T04:05:38.283Z,99.99
2017-06-29T04:06:18.797Z,99.99
2017-06-29T04:06:59.369Z,99.99
2017-06-29T04:07:39.986Z,99.99
2017-06-29T04:08:20.448Z,99.99
2017-06-29T04:09:01.013Z,99.99
2017-06-29T04:09:41.576Z,99.99
2017-06-29T04:10:22.186Z,99.99
2017-06-29T04:14:53.809Z,99.99
2017-06-29T04:15:34.318Z,99.99
2017-06-29T04:16:14.824Z,99.99
2017-06-29T04:16:55.328Z,99.99
2017-06-29T04:17:35.862Z,99.99
2017-06-29T04:18:16.384Z,99.99
2017-06-29T04:18:56.893Z,99.99
2017-06-29T04:19:37.435Z,99.99
2017-06-29T04:20:17.962Z,99.99
2017-06-29T04:20:58.481Z,99.99
2017-06-29T04:21:39.021Z,99.99
2017-06-29T04:22:19.502Z,99.99
2017-06-29T04:23:00.013Z,99.99
2017-06-29T04:23:40.526Z,99.99
2017-06-29T04:24:21.053Z,99.99
2017-06-29T04:25:01.562Z,99.99
2017-06-29T04:25:42.102Z,99.99
2017-06-29T04:26:22.583Z,99.99
2017-06-29T04:27:03.215Z,99.99
2017-06-29T04:27:43.812Z,99.99
2017-06-29T04:28:24.336Z,99.99
2017-06-29T04:29:04.855Z,99.99
2017-06-29T04:29:45.379Z,99.99
2017-06-29T04:30:25.989Z,99.99
2017-06-29T04:31:06.535Z,99.99
2017-06-29T04:31:47.045Z,99.99
2017-06-29T04:32:27.565Z,99.99
2017-06-29T04:33:08.121Z,99.99
2017-06-29T04:33:48.608Z,99.99
2017-06-29T04:34:29.153Z,99.99
2017-06-29T04:35:09.670Z,99.99
2017-06-29T04:35:50.184Z,99.99
2017-06-29T04:36:30.730Z,99.99
2017-06-29T04:37:11.253Z,99.99
2017-06-29T04:37:51.757Z,99.99
2017-06-29T04:38:32.294Z,99.99
2017-06-29T04:39:12.827Z,99.99
2017-06-29T04:39:53.342Z,99.99
2017-06-29T04:40:33.871Z,99.99
2017-06-29T04:41:14.377Z,99.99
2017-06-29T04:41:54.928Z,99.99
2017-06-29T04:42:35.490Z,99.99
2017-06-29T04:43:16.036Z,99.99
2017-06-29T04:43:56.618Z,99.99
2017-06-29T04:44:37.147Z,99.99
2017-06-29T04:45:17.706Z,99.99
2017-06-29T04:45:58.234Z,99.99
2017-06-29T04:46:38.767Z,99.99
2017-06-29T04:47:19.304Z,99.99
2017-06-29T04:47:59.779Z,99.99
2017-06-29T04:48:40.299Z,99.99
2017-06-29T04:49:20.853Z,99.99
2017-06-29T04:50:01.380Z,99.99
2017-06-29T04:50:41.907Z,99.99
2017-06-29T04:51:22.457Z,99.99
2017-06-29T04:52:02.970Z,99.99
2017-06-29T04:52:43.514Z,99.99
2017-06-29T04:53:24.051Z,99.99
2017-06-29T04:54:04.590Z,99.99
2017-06-29T04:54:45.124Z,99.99
2017-06-29T04:55:25.648Z,99.99
2017-06-29T04:56:06.176Z,99.99
2017-06-29T04:56:46.718Z,99.99
2017-06-29T04:57:27.257Z,99.99
2017-06-29T04:58:07.778Z,99.99
2017-06-29T04:58:48.293Z,99.99
2017-06-29T04:59:28.826Z,99.99
2017-06-29T05:00:09.372Z,99.99
2017-06-29T05:00:49.898Z,99.99
2017-06-29T05:01:30.448Z,99.99
2017-06-29T05:02:10.994Z,99.99
2017-06-29T05:07:26.361Z,99.99
2017-06-29T05:08:07.876Z,99.99
2017-06-29T05:10:19.038Z,99.99
2017-06-29T05:11:05.474Z,99.99
2017-06-29T05:11:46.041Z,99.99
2017-06-29T05:12:26.586Z,99.99
2017-06-29T05:13:07.103Z,99.99
2017-06-29T05:13:47.651Z,99.99
2017-06-29T05:14:28.130Z,99.99
2017-06-29T05:15:08.623Z,99.99
2017-06-29T05:15:49.147Z,99.99
2017-06-29T05:16:29.665Z,99.99
2017-06-29T05:17:10.184Z,99.99
2017-06-29T05:17:50.732Z,99.99
2017-06-29T05:18:31.266Z,99.99
2017-06-29T05:19:11.819Z,99.99
2017-06-29T05:19:52.344Z,99.99
2017-06-29T05:20:32.848Z,99.99
2017-06-29T05:21:13.374Z,99.99
2017-06-29T05:21:53.893Z,99.99
2017-06-29T05:22:34.403Z,99.99
2017-06-29T05:23:14.924Z,99.99
2017-06-29T05:23:55.450Z,99.99
2017-06-29T05:24:35.999Z,99.99
2017-06-29T05:25:16.516Z,99.99
2017-06-29T05:25:57.060Z,99.99
2017-06-29T05:26:37.580Z,99.99
2017-06-29T05:27:18.114Z,99.99
2017-06-29T05:27:58.650Z,99.99
2017-06-29T05:28:39.173Z,99.99
2017-06-29T05:29:19.689Z,99.99
2017-06-29T05:30:00.225Z,99.99
2017-06-29T05:30:40.999Z,99.99
2017-06-29T05:31:21.511Z,99.99
2017-06-29T05:32:02.028Z,99.99
2017-06-29T05:32:42.560Z,99.99
2017-06-29T05:33:23.089Z,99.99
2017-06-29T05:34:03.580Z,99.99
2017-06-29T05:34:44.123Z,99.99
2017-06-29T05:35:24.639Z,99.99
2017-06-29T05:36:05.129Z,99.99
2017-06-29T05:36:45.644Z,99.99
2017-06-29T05:37:26.237Z,99.99
2017-06-29T05:38:07.662Z,99.99
2017-06-29T05:38:48.200Z,99.99
2017-06-29T05:39:28.742Z,99.99
2017-06-29T05:40:09.230Z,99.99
2017-06-29T05:40:49.777Z,99.99
2017-06-29T05:41:30.286Z,99.99
2017-06-29T05:42:12.555Z,99.99
2017-06-29T05:42:57.972Z,99.99
2017-06-29T05:43:38.535Z,99.99
2017-06-29T05:44:19.091Z,99.99
2017-06-29T05:44:59.573Z,99.99
2017-06-29T05:45:40.314Z,99.99
2017-06-29T05:46:21.036Z,99.99
2017-06-29T05:47:01.999Z,99.99
2017-06-29T05:47:44.842Z,99.99
2017-06-29T05:48:30.179Z,99.99
2017-06-29T05:49:10.694Z,99.99
2017-06-29T05:49:53.094Z,99.99
2017-06-29T05:50:33.596Z,99.99
2017-06-29T05:51:14.094Z,99.99
2017-06-29T05:51:54.778Z,99.99
2017-06-29T05:52:35.450Z,99.99
2017-06-29T05:53:16.018Z,99.99
2017-06-29T05:53:58.066Z,99.99
2017-06-29T05:54:38.621Z,99.99
2017-06-29T05:55:19.091Z,99.99
2017-06-29T05:55:59.641Z,99.99
2017-06-29T05:56:40.154Z,99.99
2017-06-29T05:57:20.843Z,99.99
2017-06-29T05:58:01.365Z,99.99
2017-06-29T05:58:41.921Z,99.99
2017-06-29T05:59:22.595Z,99.99
2017-06-29T06:00:03.036Z,99.99
2017-06-29T06:00:43.583Z,99.99
2017-06-29T06:01:24.138Z,99.99
2017-06-29T06:02:05.424Z,99.99
2017-06-29T06:02:45.925Z,99.99
2017-06-29T06:03:26.802Z,99.99
2017-06-29T06:04:07.361Z,99.99
2017-06-29T06:04:47.908Z,99.99
2017-06-29T06:05:28.427Z,99.99
2017-06-29T06:06:08.950Z,99.99
2017-06-29T06:06:49.459Z,99.99
2017-06-29T06:07:29.961Z,99.99
2017-06-29T06:08:10.461Z,99.99
2017-06-29T06:08:50.974Z,99.99
2017-06-29T06:09:31.502Z,99.99
2017-06-29T06:10:12.023Z,99.99
2017-06-29T06:10:52.560Z,99.99
2017-06-29T06:11:33.095Z,99.99
2017-06-29T06:12:13.625Z,99.99
2017-06-29T06:12:54.150Z,99.99
2017-06-29T06:13:34.659Z,99.99
2017-06-29T06:14:15.159Z,99.99
2017-06-29T06:27:03.223Z,99.99
2017-06-29T06:27:47.750Z,99.99
2017-06-29T06:28:28.270Z,99.99
2017-06-29T06:29:08.791Z,99.99
2017-06-29T06:29:49.316Z,99.99
2017-06-29T06:30:29.840Z,99.99
2017-06-29T06:31:10.342Z,99.99
2017-06-29T06:31:50.851Z,99.99
2017-06-29T06:32:31.389Z,99.99
2017-06-29T06:33:11.897Z,99.99
2017-06-29T06:33:52.424Z,99.99
2017-06-29T06:34:32.961Z,99.99
2017-06-29T06:35:13.478Z,99.99
2017-06-29T06:35:53.979Z,99.99
2017-06-29T06:36:34.499Z,99.99
2017-06-29T06:37:15.811Z,99.99
2017-06-29T06:37:57.523Z,99.99
2017-06-29T06:38:38.048Z,99.99
2017-06-29T06:39:18.895Z,99.99
2017-06-29T06:39:59.791Z,99.99
2017-06-29T06:40:40.292Z,99.99
2017-06-29T06:41:20.824Z,99.99
2017-06-29T06:42:01.372Z,99.99
2017-06-29T06:42:41.893Z,99.99
2017-06-29T06:43:22.581Z,99.99
2017-06-29T06:44:03.113Z,99.99
2017-06-29T06:44:43.644Z,99.99
2017-06-29T06:45:24.146Z,99.99
2017-06-29T06:46:04.666Z,99.99
2017-06-29T06:46:45.205Z,99.99
2017-06-29T06:47:25.831Z,99.99
2017-06-29T06:48:06.341Z,99.99
2017-06-29T06:48:46.850Z,99.99
2017-06-29T06:49:27.363Z,99.99
2017-06-29T06:50:07.876Z,99.99
2017-06-29T06:50:48.415Z,99.99
2017-06-29T06:51:28.913Z,99.99
2017-06-29T06:52:09.450Z,99.99
2017-06-29T06:52:49.956Z,99.99
2017-06-29T06:53:30.469Z,99.99
2017-06-29T06:54:10.997Z,99.99
2017-06-29T06:54:51.511Z,99.99
2017-06-29T06:55:32.032Z,99.99
2017-06-29T06:56:12.568Z,99.99
2017-06-29T06:56:53.102Z,99.99
2017-06-29T06:57:33.653Z,99.99
2017-06-29T06:58:14.188Z,99.99
2017-06-29T06:58:54.730Z,99.99
2017-06-29T06:59:35.259Z,99.99
2017-06-29T07:00:15.789Z,99.99
2017-06-29T07:00:56.318Z,99.99
2017-06-29T07:01:36.846Z,99.99
2017-06-29T07:02:17.402Z,99.99
2017-06-29T07:02:57.933Z,99.99
2017-06-29T07:03:38.462Z,99.99
2017-06-29T07:04:19.164Z,99.99
2017-06-29T07:04:59.706Z,99.99
2017-06-29T07:05:40.250Z,99.99
2017-06-29T07:06:20.773Z,99.99
2017-06-29T07:07:01.319Z,99.99
2017-06-29T07:07:41.850Z,99.99
2017-06-29T07:08:22.379Z,99.99
2017-06-29T07:09:02.921Z,99.99
2017-06-29T07:09:43.468Z,99.99
2017-06-29T07:10:24.006Z,99.99
2017-06-29T07:11:04.560Z,99.99
2017-06-29T07:11:45.108Z,99.99
2017-06-29T07:12:25.649Z,99.99
2017-06-29T07:13:06.173Z,99.99
2017-06-29T07:13:46.703Z,99.99
2017-06-29T07:14:27.237Z,99.99
2017-06-29T07:15:07.768Z,99.99
2017-06-29T07:15:48.318Z,99.99
2017-06-29T07:16:28.860Z,99.99
2017-06-29T07:17:09.365Z,99.99
2017-06-29T07:17:49.886Z,99.99
2017-06-29T07:18:30.413Z,99.99
2017-06-29T07:19:10.913Z,99.99
2017-06-29T07:19:51.439Z,99.99
2017-06-29T07:20:32.155Z,99.99
2017-06-29T07:21:13.139Z,99.99
2017-06-29T07:21:53.930Z,99.99
2017-06-29T07:22:34.715Z,99.99
2017-06-29T07:23:15.221Z,99.99
2017-06-29T07:23:55.761Z,99.99
2017-06-29T07:24:36.284Z,99.99
2017-06-29T07:25:16.818Z,99.99
2017-06-29T07:25:57.350Z,99.99
2017-06-29T07:26:37.854Z,99.99
2017-06-29T07:27:18.370Z,99.99
2017-06-29T07:27:58.908Z,99.99
2017-06-29T07:28:39.418Z,99.99
2017-06-29T07:29:19.958Z,99.99
2017-06-29T07:30:00.488Z,99.99
2017-06-29T07:30:41.018Z,99.99
2017-06-29T07:31:21.509Z,99.99
2017-06-29T07:32:02.034Z,99.99
2017-06-29T07:32:42.562Z,99.99
2017-06-29T07:33:23.058Z,99.99
2017-06-29T07:34:03.590Z,99.99
2017-06-29T07:34:44.111Z,99.99
2017-06-29T07:35:24.631Z,99.99
2017-06-29T07:36:05.159Z,99.99
2017-06-29T07:36:45.707Z,99.99
2017-06-29T07:37:26.242Z,99.99
2017-06-29T07:38:06.768Z,99.99
2017-06-29T07:38:47.312Z,99.99
2017-06-29T07:39:27.821Z,99.99
2017-06-29T07:40:08.342Z,99.99
2017-06-29T07:40:48.880Z,99.99
2017-06-29T07:41:29.444Z,99.99
2017-06-29T07:42:09.966Z,99.99
2017-06-29T07:42:50.475Z,99.99
2017-06-29T07:43:31.022Z,99.99
2017-06-29T07:44:11.563Z,99.99
2017-06-29T07:44:52.099Z,99.99
2017-06-29T07:45:32.628Z,99.99
2017-06-29T07:46:13.145Z,99.99
2017-06-29T07:46:53.686Z,99.99
2017-06-29T07:47:34.224Z,99.99
2017-06-29T07:48:14.752Z,99.99
2017-06-29T07:48:55.275Z,99.99
2017-06-29T07:49:35.801Z,99.99
2017-06-29T07:50:16.324Z,99.99
2017-06-29T07:50:56.866Z,99.99
2017-06-29T07:51:37.410Z,99.99
2017-06-29T07:52:17.964Z,99.99
2017-06-29T07:52:58.501Z,99.99
2017-06-29T07:53:39.032Z,99.99
2017-06-29T07:54:19.577Z,99.99
2017-06-29T07:55:00.102Z,99.99
2017-06-29T07:55:40.637Z,99.99
2017-06-29T07:56:21.168Z,99.99
2017-06-29T07:57:01.682Z,99.99
2017-06-29T07:57:42.203Z,99.99
2017-06-29T07:58:22.726Z,99.99
2017-06-29T07:59:03.270Z,99.99
2017-06-29T07:59:43.800Z,99.99
2017-06-29T08:00:24.335Z,99.99
2017-06-29T08:01:04.863Z,99.99
2017-06-29T08:01:45.388Z,99.99
2017-06-29T08:02:25.923Z,99.99
2017-06-29T08:03:06.464Z,99.99
2017-06-29T08:03:46.993Z,99.99
2017-06-29T08:04:27.507Z,99.99
2017-06-29T08:05:08.045Z,99.99
2017-06-29T08:05:48.601Z,99.99
2017-06-29T08:06:29.144Z,99.99
2017-06-29T08:07:09.677Z,99.99
2017-06-29T08:07:50.213Z,99.99
2017-06-29T08:08:30.736Z,99.99
2017-06-29T08:09:11.262Z,99.99
2017-06-29T08:09:51.777Z,99.99
2017-06-29T08:10:32.300Z,99.99
2017-06-29T08:11:12.822Z,99.99
2017-06-29T08:11:53.322Z,99.99
2017-06-29T08:12:33.854Z,99.99
2017-06-29T08:13:14.382Z,99.99
2017-06-29T08:13:54.904Z,99.99
2017-06-29T08:14:35.437Z,99.99
2017-06-29T08:15:16.004Z,99.83
2017-06-29T08:15:56.530Z,97.71
2017-06-29T08:16:37.042Z,95.89
2017-06-29T08:17:17.553Z,95.79
2017-06-29T08:17:58.059Z,95.6
2017-06-29T08:18:38.621Z,94.54
2017-06-29T08:19:19.134Z,94.73
2017-06-29T08:19:59.643Z,95.4
2017-06-29T08:20:40.182Z,94.83
2017-06-29T08:21:20.717Z,95.5
2017-06-29T08:22:01.262Z,94.83
2017-06-29T08:22:41.792Z,95.12
2017-06-29T08:23:22.319Z,94.73
2017-06-29T08:24:02.853Z,93.29
2017-06-29T08:24:43.397Z,93
2017-06-29T08:25:23.937Z,93.29
2017-06-29T08:26:04.464Z,93.68
2017-06-29T08:26:45.005Z,93.19
2017-06-29T08:27:25.526Z,93.48
2017-06-29T08:28:06.044Z,93.87
2017-06-29T08:28:46.572Z,93.29
2017-06-29T08:29:27.129Z,91.94
2017-06-29T08:30:07.665Z,92.23
2017-06-29T08:30:48.206Z,92.43
2017-06-29T08:31:28.727Z,92.33
2017-06-29T08:32:09.264Z,92.91
2017-06-29T08:32:49.809Z,93.33
2017-06-29T08:33:30.343Z,93.87
2017-06-29T08:34:10.877Z,93.91
2017-06-29T08:34:51.403Z,93.53
2017-06-29T08:35:31.931Z,92.85
2017-06-29T08:36:12.454Z,92.95
2017-06-29T08:36:52.999Z,92.66
2017-06-29T08:37:33.584Z,92.95
2017-06-29T08:38:14.114Z,92.76
2017-06-29T08:38:54.653Z,92.08
2017-06-29T08:39:35.171Z,91.41
2017-06-29T08:40:15.691Z,90.93
2017-06-29T08:40:56.219Z,90.26
2017-06-29T08:41:36.737Z,90.06
2017-06-29T08:42:17.250Z,89.39
2017-06-29T08:42:57.772Z,88.62
2017-06-29T08:43:38.294Z,88.33
2017-06-29T08:44:18.793Z,89.01
2017-06-29T08:44:59.353Z,89.01
2017-06-29T08:45:39.870Z,89.49
2017-06-29T08:46:20.449Z,88.91
2017-06-29T08:47:00.921Z,89.29
2017-06-29T08:47:41.456Z,89.1
2017-06-29T08:48:21.986Z,90.16
2017-06-29T08:49:02.495Z,89.97
2017-06-29T08:49:43.041Z,89.78
2017-06-29T08:50:23.578Z,89.39
2017-06-29T08:51:04.152Z,89.29
2017-06-29T08:51:44.675Z,89.29
2017-06-29T08:52:25.217Z,89.01
2017-06-29T08:53:05.687Z,89.29
2017-06-29T08:53:46.223Z,89.39
2017-06-29T08:54:26.745Z,89.87
2017-06-29T08:55:07.254Z,89.78
2017-06-29T08:55:47.796Z,90.16
2017-06-29T08:56:28.313Z,90.16
2017-06-29T08:57:08.824Z,90.73
2017-06-29T08:57:49.357Z,90.93
2017-06-29T08:58:29.863Z,91.22
2017-06-29T08:59:10.390Z,92.57
2017-06-29T08:59:50.925Z,92.18
2017-06-29T09:00:31.465Z,92.28
2017-06-29T09:01:12.019Z,90.73
2017-06-29T09:01:52.496Z,90.73
2017-06-29T09:02:33.020Z,90.93
2017-06-29T09:03:13.558Z,90.73
2017-06-29T09:03:54.065Z,89.97
2017-06-29T09:04:34.585Z,89.78
2017-06-29T09:05:15.098Z,89.87
2017-06-29T09:05:55.626Z,90.06
2017-06-29T09:06:36.146Z,90.93